Time;durP1;ratioP1;P1;durP2;ratioP2;P2;SDS_P1;SDS_P2;PMS_P1;PMS_P2;Temp;Humidity;BMP_temperature;BMP_pressure;BME280_temperature;BME280_humidity;BME280_pressure;Samples;Min_cycle;Max_cycle;Signal;HPM_P1;HPM_P2
2021/03/17 00:00:55;;;;;;;12.88;7.68;;;;;;;1.76;90.45;101200.69;5023857;28;20423;-73
2021/03/17 00:03:24;;;;;;;14.82;7.80;;;;;;;2.09;88.79;101192.44;5038317;28;20315;-73
2021/03/17 00:05:51;;;;;;;14.35;6.93;;;;;;;2.44;85.57;101197.09;5033255;28;20057;-72
2021/03/17 00:08:20;;;;;;;13.23;6.78;;;;;;;2.17;84.14;101200.97;5031367;28;20052;-74
2021/03/17 00:10:49;;;;;;;12.18;6.95;;;;;;;1.89;84.83;101200.50;5019076;28;20375;-72
2021/03/17 00:13:18;;;;;;;13.38;7.72;;;;;;;1.99;86.18;101197.78;5028157;28;20053;-74
2021/03/17 00:15:46;;;;;;;20.30;9.38;;;;;;;1.82;85.40;101204.09;5046704;28;20057;-72
2021/03/17 00:18:14;;;;;;;12.98;6.68;;;;;;;1.65;85.91;101202.56;5042746;28;20987;-73
2021/03/17 00:20:41;;;;;;;13.48;6.53;;;;;;;1.63;85.84;101199.13;5038011;28;20052;-72
2021/03/17 00:23:09;;;;;;;14.50;6.53;;;;;;;1.66;86.78;101204.25;5030083;28;20143;-73
2021/03/17 00:25:38;;;;;;;12.82;6.20;;;;;;;1.61;86.57;101202.63;5037366;28;20063;-73
2021/03/17 00:28:09;;;;;;;12.25;7.20;;;;;;;1.69;86.75;101195.59;5033646;28;20059;-73
2021/03/17 00:30:38;;;;;;;11.52;6.78;;;;;;;1.87;85.92;101199.69;5042727;28;20040;-71
2021/03/17 00:33:07;;;;;;;11.15;6.95;;;;;;;1.98;85.52;101196.06;5044367;28;20052;-72
2021/03/17 00:35:34;;;;;;;12.57;6.68;;;;;;;1.92;85.33;101203.91;5035165;28;20492;-72
2021/03/17 00:38:01;;;;;;;10.77;6.25;;;;;;;1.99;85.52;101202.13;5028477;28;20049;-71
2021/03/17 00:40:28;;;;;;;15.02;6.60;;;;;;;2.13;84.94;101192.38;5037532;28;20064;-72
2021/03/17 00:42:55;;;;;;;13.25;6.97;;;;;;;2.11;84.62;101190.66;5033738;28;20041;-74
2021/03/17 00:45:21;;;;;;;12.52;5.85;;;;;;;2.28;84.24;101199.06;5034104;28;20504;-72
2021/03/17 00:47:48;;;;;;;14.40;6.82;;;;;;;2.27;84.44;101192.16;5032224;28;20045;-73
2021/03/17 00:50:16;;;;;;;13.40;6.45;;;;;;;2.32;83.99;101190.34;5011914;28;20156;-72
2021/03/17 00:52:43;;;;;;;10.82;6.75;;;;;;;2.30;83.83;101199.91;5032360;28;20052;-72
2021/03/17 00:55:12;;;;;;;15.02;6.82;;;;;;;2.27;83.90;101197.34;5013223;28;20674;-72
2021/03/17 00:57:39;;;;;;;14.70;6.85;;;;;;;2.27;83.73;101192.16;5039334;28;20075;-72
2021/03/17 01:00:09;;;;;;;11.40;7.28;;;;;;;2.36;83.33;101185.97;5027079;28;20382;-72
2021/03/17 01:02:37;;;;;;;15.50;7.15;;;;;;;2.37;83.11;101185.94;5010344;28;20053;-72
2021/03/17 01:05:05;;;;;;;12.88;6.53;;;;;;;2.42;83.51;101191.91;5040665;28;20497;-72
2021/03/17 01:07:32;;;;;;;16.25;7.30;;;;;;;2.34;83.60;101188.56;5052301;28;20098;-71
2021/03/17 01:09:58;;;;;;;14.93;6.80;;;;;;;2.31;83.20;101180.84;5040725;28;20057;-74
2021/03/17 01:12:25;;;;;;;13.35;6.18;;;;;;;2.36;82.95;101192.00;5051900;28;20045;-70
2021/03/17 01:14:52;;;;;;;10.48;6.05;;;;;;;2.43;83.46;101182.38;5033412;28;20484;-71
2021/03/17 01:17:19;;;;;;;15.18;7.50;;;;;;;2.39;83.29;101183.31;5043058;28;20059;-73
2021/03/17 01:19:46;;;;;;;15.07;6.97;;;;;;;2.45;83.46;101186.66;5033167;28;20065;-72
2021/03/17 01:22:14;;;;;;;12.05;6.85;;;;;;;2.34;83.85;101185.97;5032821;28;20060;-73
2021/03/17 01:24:41;;;;;;;13.13;7.75;;;;;;;2.17;84.72;101182.81;5021847;28;20942;-72
2021/03/17 01:27:08;;;;;;;17.73;7.95;;;;;;;2.35;84.28;101182.50;5031928;28;20128;-72
2021/03/17 01:29:35;;;;;;;15.52;8.05;;;;;;;2.29;84.23;101183.44;5015559;28;20069;-71
2021/03/17 01:32:06;;;;;;;15.98;8.20;;;;;;;2.15;84.96;101188.00;5040434;28;20512;-72
2021/03/17 01:34:33;;;;;;;18.15;8.18;;;;;;;2.19;85.08;101184.47;5012737;28;20530;-72
2021/03/17 01:37:00;;;;;;;13.43;8.25;;;;;;;2.05;85.16;101183.84;5031957;28;20059;-73
2021/03/17 01:39:27;;;;;;;16.80;8.45;;;;;;;2.15;85.80;101188.00;5030042;28;20417;-73
2021/03/17 01:41:53;;;;;;;19.13;8.45;;;;;;;2.17;85.67;101185.41;5013007;28;20045;-72
2021/03/17 01:44:20;;;;;;;14.40;8.35;;;;;;;2.10;85.44;101183.75;5043330;28;20068;-72
2021/03/17 01:46:47;;;;;;;19.15;9.73;;;;;;;2.09;85.78;101188.09;5032072;28;20132;-71
2021/03/17 01:49:14;;;;;;;17.05;9.95;;;;;;;1.96;86.72;101187.41;5032668;28;20212;-71
2021/03/17 01:51:41;;;;;;;20.63;8.73;;;;;;;1.92;87.07;101184.88;5049659;28;20047;-72
2021/03/17 01:54:10;;;;;;;19.20;9.93;;;;;;;1.66;87.82;101190.44;5031755;28;20111;-71
2021/03/17 01:56:37;;;;;;;18.73;9.23;;;;;;;1.59;88.20;101191.41;5024039;28;20033;-71
2021/03/17 01:59:03;;;;;;;16.23;9.73;;;;;;;1.60;88.57;101200.91;5044995;28;20051;-75
2021/03/17 02:01:30;;;;;;;19.27;9.80;;;;;;;1.48;88.62;101192.38;5041412;28;20116;-72
2021/03/17 02:03:57;;;;;;;18.98;9.25;;;;;;;1.47;88.87;101189.81;5056184;28;20128;-72
2021/03/17 02:06:24;;;;;;;23.92;10.25;;;;;;;1.50;88.50;101195.84;5010480;28;20033;-71
2021/03/17 02:08:51;;;;;;;17.38;9.13;;;;;;;1.41;88.91;101192.50;5038994;28;20348;-74
2021/03/17 02:11:17;;;;;;;21.20;9.98;;;;;;;1.36;89.02;101197.75;5026208;28;20348;-72
2021/03/17 02:14:21;;;;;;;21.23;10.15;;;;;;;1.33;89.48;101199.50;5040314;28;20057;-72
2021/03/17 02:16:57;;;;;;;19.77;8.80;;;;;;;1.35;89.10;101196.03;5039349;28;20071;-71
2021/03/17 02:19:30;;;;;;;16.80;9.15;;;;;;;1.49;88.58;101191.53;5033072;28;20053;-70
2021/03/17 02:22:23;;;;;;;18.00;9.82;;;;;;;1.45;88.97;101189.84;5042742;28;20357;-72
2021/03/17 02:25:14;;;;;;;20.33;9.48;;;;;;;1.50;89.11;101187.19;5033978;28;20056;-72
2021/03/17 02:28:13;;;;;;;20.17;9.65;;;;;;;1.41;89.38;101193.34;5017918;28;20053;-73
2021/03/17 02:31:09;;;;;;;20.65;10.60;;;;;;;1.28;89.87;101202.16;5049257;28;20057;-73
2021/03/17 02:33:45;;;;;;;16.80;9.48;;;;;;;1.40;90.13;101196.84;5033755;28;20091;-74
2021/03/17 02:36:17;;;;;;;27.80;10.43;;;;;;;1.35;90.07;101202.94;5037323;28;20076;-73
2021/03/17 02:38:54;;;;;;;17.15;9.90;;;;;;;1.47;90.23;101198.44;5040229;28;20103;-73
2021/03/17 02:41:28;;;;;;;24.73;9.77;;;;;;;1.35;89.73;101198.63;5020547;28;20049;-74
2021/03/17 02:43:57;;;;;;;21.52;11.13;;;;;;;1.27;90.12;101203.88;5022291;28;20536;-74
2021/03/17 02:46:25;;;;;;;23.33;11.20;;;;;;;1.22;90.53;101200.50;5018014;28;20057;-73
2021/03/17 02:49:02;;;;;;;23.60;10.88;;;;;;;1.37;91.02;101196.84;5034736;28;20158;-75
2021/03/17 02:51:39;;;;;;;23.73;11.70;;;;;;;1.37;90.34;101196.84;5019570;28;20137;-72
2021/03/17 02:54:09;;;;;;;18.15;9.82;;;;;;;1.35;90.75;101200.34;5031204;28;20148;-73
2021/03/17 02:56:46;;;;;;;24.08;11.20;;;;;;;1.35;91.12;101192.56;5030310;28;20049;-73
2021/03/17 02:59:16;;;;;;;21.58;11.13;;;;;;;1.45;90.63;101197.63;5042494;28;20065;-73
2021/03/17 03:01:45;;;;;;;25.27;11.68;;;;;;;1.50;90.71;101206.22;5035437;28;20381;-73
2021/03/17 03:04:12;;;;;;;19.55;10.48;;;;;;;1.47;90.82;101201.06;5036198;28;20053;-73
2021/03/17 03:06:44;;;;;;;22.35;11.55;;;;;;;1.49;91.74;101199.31;5040374;28;20057;-73
2021/03/17 03:09:11;;;;;;;22.48;11.20;;;;;;;1.71;90.73;101196.41;5023592;28;20045;-73
2021/03/17 03:11:38;;;;;;;23.95;12.18;;;;;;;1.61;90.54;101200.88;5041243;28;20049;-73
2021/03/17 03:14:05;;;;;;;22.38;12.63;;;;;;;1.55;90.89;101197.50;5033986;28;20061;-73
2021/03/17 03:16:34;;;;;;;20.73;11.02;;;;;;;1.67;90.69;101202.56;5040348;28;20128;-73
2021/03/17 03:19:06;;;;;;;24.58;11.60;;;;;;;1.84;90.18;101197.13;5038724;28;20087;-73
2021/03/17 03:21:33;;;;;;;21.27;11.38;;;;;;;1.77;90.23;101199.81;5041229;28;20059;-72
2021/03/17 03:24:00;;;;;;;18.70;11.27;;;;;;;1.88;89.69;101199.66;5029297;28;20147;-73
2021/03/17 03:26:27;;;;;;;26.70;12.18;;;;;;;1.96;89.56;101202.16;5043201;28;20138;-73
2021/03/17 03:29:04;;;;;;;22.45;11.57;;;;;;;1.90;89.89;101197.06;5033556;28;20442;-73
2021/03/17 03:31:31;;;;;;;20.35;11.23;;;;;;;2.01;89.07;101190.81;5017158;28;20055;-72
2021/03/17 03:33:58;;;;;;;29.55;12.50;;;;;;;1.80;89.84;101204.09;5024279;28;20124;-73
2021/03/17 03:36:26;;;;;;;29.60;12.85;;;;;;;1.74;89.82;101205.03;5039118;28;20067;-73
2021/03/17 03:38:55;;;;;;;24.25;12.55;;;;;;;1.65;90.72;101204.28;5043943;28;20053;-72
2021/03/17 03:41:22;;;;;;;23.77;11.27;;;;;;;1.75;89.83;101208.47;5022846;28;20092;-72
2021/03/17 03:43:52;;;;;;;22.88;13.07;;;;;;;1.76;89.83;101205.88;5024536;28;20051;-72
2021/03/17 03:46:36;;;;;;;26.20;12.70;;;;;;;1.69;90.26;101208.56;5044374;28;20056;-73
2021/03/17 03:49:05;;;;;;;25.67;12.15;;;;;;;1.69;90.53;101208.56;5018039;28;20052;-73
2021/03/17 03:51:36;;;;;;;21.63;11.90;;;;;;;1.75;90.44;101208.47;5046470;28;20059;-73
2021/03/17 03:54:23;;;;;;;21.10;11.60;;;;;;;1.79;90.15;101204.97;5057634;28;20112;-71
2021/03/17 03:57:06;;;;;;;27.92;10.88;;;;;;;1.72;90.14;101214.59;5030255;28;20087;-73
2021/03/17 03:59:38;;;;;;;26.15;12.27;;;;;;;1.73;90.58;101220.63;5051980;28;20053;-72
2021/03/17 04:02:08;;;;;;;23.58;12.48;;;;;;;1.66;90.66;101224.16;5048946;28;20061;-72
2021/03/17 04:04:41;;;;;;;26.45;14.18;;;;;;;1.54;91.01;101219.16;5053739;28;20092;-72
2021/03/17 04:07:34;;;;;;;30.27;13.15;;;;;;;1.57;91.19;101219.09;5038651;28;20060;-72
2021/03/17 04:10:05;;;;;;;30.00;13.05;;;;;;;1.59;91.75;101217.38;5034800;28;20041;-73
2021/03/17 04:12:40;;;;;;;29.33;13.77;;;;;;;1.67;90.66;101221.56;5047263;28;20072;-72
2021/03/17 04:15:07;;;;;;;31.00;14.85;;;;;;;1.51;91.57;101214.84;5044161;28;20055;-71
2021/03/17 04:17:39;;;;;;;27.83;14.35;;;;;;;1.50;91.74;101221.78;5031499;28;20067;-75
2021/03/17 04:20:08;;;;;;;28.85;15.20;;;;;;;1.43;92.03;101222.72;5038100;28;20045;-73
2021/03/17 04:22:37;;;;;;;29.55;13.25;;;;;;;1.37;92.01;101221.94;5014402;28;20399;-74
2021/03/17 04:25:07;;;;;;;26.52;14.43;;;;;;;1.34;92.25;101229.75;5034150;28;20060;-73
2021/03/17 04:27:34;;;;;;;30.63;12.50;;;;;;;1.45;91.84;101233.09;5042937;28;20060;-71
2021/03/17 04:30:04;;;;;;;28.55;13.48;;;;;;;1.36;92.23;101228.88;5026046;28;20497;-72
2021/03/17 04:32:31;;;;;;;27.35;13.93;;;;;;;1.21;92.77;101226.44;5031118;28;20135;-72
2021/03/17 04:34:59;;;;;;;30.10;14.73;;;;;;;1.24;92.76;101229.00;5009940;28;20140;-72
2021/03/17 04:37:30;;;;;;;27.67;14.57;;;;;;;1.25;92.83;101231.56;5046311;28;20057;-73
2021/03/17 04:39:58;;;;;;;22.88;12.57;;;;;;;1.35;92.88;101234.06;5024366;28;20516;-74
2021/03/17 04:42:25;;;;;;;28.27;14.05;;;;;;;1.26;92.33;101233.31;5042757;28;20068;-73
2021/03/17 04:44:52;;;;;;;30.00;13.82;;;;;;;1.32;93.03;101240.16;5021979;28;20360;-73
2021/03/17 04:47:20;;;;;;;25.33;13.75;;;;;;;1.25;92.96;101244.53;5005057;28;20065;-73
2021/03/17 04:49:49;;;;;;;27.30;13.18;;;;;;;1.38;92.73;101234.03;5028604;28;20057;-73
2021/03/17 04:52:17;;;;;;;33.55;13.82;;;;;;;1.53;92.13;101239.03;5030185;28;20053;-73
2021/03/17 04:54:44;;;;;;;28.42;13.60;;;;;;;1.41;91.77;101242.66;5012979;28;20053;-73
2021/03/17 04:57:19;;;;;;;22.52;12.18;;;;;;;1.42;92.26;101238.31;5018548;28;20056;-74
2021/03/17 04:59:46;;;;;;;31.80;14.88;;;;;;;1.24;92.31;101247.16;5046761;28;20061;-73
2021/03/17 05:02:17;;;;;;;28.77;12.98;;;;;;;1.36;92.68;101251.38;5026596;28;20053;-73
2021/03/17 05:04:45;;;;;;;25.38;13.18;;;;;;;1.34;92.61;101253.94;5053721;28;20061;-72
2021/03/17 05:07:12;;;;;;;29.95;12.98;;;;;;;1.27;92.46;101253.16;5048908;28;20073;-73
2021/03/17 05:09:42;;;;;;;31.73;14.43;;;;;;;1.33;92.91;101265.22;5018769;28;20056;-72
2021/03/17 05:12:09;;;;;;;39.75;16.58;;;;;;;1.26;92.77;101266.13;5039690;28;20041;-72
2021/03/17 05:14:37;;;;;;;37.95;13.98;;;;;;;1.01;93.89;101268.97;5027766;28;20061;-73
2021/03/17 05:17:04;;;;;;;26.13;14.07;;;;;;;1.02;94.41;101264.66;5040094;28;20041;-71
2021/03/17 05:19:31;;;;;;;27.90;14.63;;;;;;;1.18;93.74;101260.19;5055947;28;20079;-73
2021/03/17 05:21:59;;;;;;;32.92;14.90;;;;;;;1.04;93.76;101273.28;5029913;28;20067;-74
2021/03/17 05:24:26;;;;;;;30.15;15.02;;;;;;;0.84;94.84;101265.69;5011702;28;20063;-72
2021/03/17 05:26:54;;;;;;;28.15;14.18;;;;;;;0.80;95.47;101273.50;5013183;28;20056;-72
2021/03/17 05:29:23;;;;;;;36.95;16.25;;;;;;;0.88;95.15;101275.16;5027523;28;20052;-72
2021/03/17 05:31:51;;;;;;;26.52;14.85;;;;;;;0.79;95.69;101280.41;5017305;28;20052;-73
2021/03/17 05:34:19;;;;;;;24.90;13.57;;;;;;;0.78;95.69;101277.84;5027350;28;21227;-72
2021/03/17 05:36:46;;;;;;;34.05;14.27;;;;;;;0.69;96.02;101274.44;5020532;28;20053;-73
2021/03/17 05:39:15;;;;;;;28.92;14.50;;;;;;;0.98;95.45;101274.19;5040688;28;20053;-73
2021/03/17 05:41:42;;;;;;;32.75;14.85;;;;;;;0.82;94.89;101285.59;5010080;28;20541;-73
2021/03/17 05:44:10;;;;;;;31.98;14.73;;;;;;;0.96;94.66;101288.91;5023495;28;20064;-72
2021/03/17 05:46:37;;;;;;;29.90;14.98;;;;;;;0.90;94.62;101283.78;5002605;28;20062;-71
2021/03/17 05:49:04;;;;;;;30.30;15.02;;;;;;;0.91;94.69;101284.66;5029052;28;20060;-73
2021/03/17 05:51:31;;;;;;;30.63;14.35;;;;;;;0.80;94.43;101287.31;5037210;28;20061;-73
2021/03/17 05:53:59;;;;;;;29.52;13.88;;;;;;;0.92;94.57;101286.34;5044893;28;20532;-73
2021/03/17 05:56:30;;;;;;;25.38;13.90;;;;;;;0.91;94.06;101292.44;5032408;28;20582;-70
2021/03/17 05:59:00;;;;;;;25.88;14.38;;;;;;;0.75;94.76;101292.53;5035354;28;20053;-71
2021/03/17 06:01:28;;;;;;;24.80;14.27;;;;;;;0.93;94.31;101298.44;5031128;28;20072;-71
2021/03/17 06:03:56;;;;;;;28.33;13.52;;;;;;;0.70;95.16;101296.03;5042514;28;20144;-73
2021/03/17 06:06:24;;;;;;;30.95;13.60;;;;;;;0.60;95.79;101294.41;5021256;28;20201;-71
2021/03/17 06:08:51;;;;;;;29.85;14.70;;;;;;;0.68;95.78;101301.25;5010018;28;20072;-71
2021/03/17 06:11:19;;;;;;;33.05;14.80;;;;;;;0.84;95.33;101301.97;5041097;28;20049;-73
2021/03/17 06:13:50;;;;;;;29.73;12.95;;;;;;;1.04;94.43;101307.00;5036597;28;20106;-71
2021/03/17 06:16:21;;;;;;;26.00;13.90;;;;;;;1.28;93.52;101305.91;5019971;28;20052;-71
2021/03/17 06:18:55;;;;;;;28.05;13.93;;;;;;;1.37;92.75;101312.75;5034243;28;20053;-69
2021/03/17 06:21:22;;;;;;;29.02;14.27;;;;;;;1.54;91.90;101303.03;5016185;28;20056;-71
2021/03/17 06:23:52;;;;;;;25.13;13.23;;;;;;;1.61;91.83;101312.47;5041598;28;20136;-75
2021/03/17 06:26:19;;;;;;;27.92;12.95;;;;;;;1.60;91.16;101315.94;5072383;28;20044;-71
2021/03/17 06:28:47;;;;;;;21.52;13.18;;;;;;;1.44;91.02;101314.38;5053534;28;20091;-71
2021/03/17 06:31:20;;;;;;;35.00;14.85;;;;;;;1.66;91.37;101318.47;5020199;28;20059;-72
2021/03/17 06:33:51;;;;;;;26.20;13.02;;;;;;;2.01;89.91;101317.19;5053959;23;20035;-80
2021/03/17 06:36:20;;;;;;;29.88;13.02;;;;;;;2.24;88.70;101320.34;5033015;28;20092;-82
2021/03/17 06:38:48;;;;;;;26.70;12.85;;;;;;;2.31;87.79;101318.53;5008921;28;20044;-81
2021/03/17 06:41:17;;;;;;;28.15;12.38;;;;;;;2.46;86.79;101317.47;5033323;28;20049;-82
2021/03/17 06:43:52;;;;;;;35.10;13.75;;;;;;;2.72;86.06;101317.06;5026129;28;20037;-81
2021/03/17 06:46:20;;;;;;;31.67;13.13;;;;;;;3.00;84.53;101323.53;5031019;28;20126;-79
2021/03/17 06:49:04;;;;;;;25.95;11.30;;;;;;;2.76;84.93;101318.75;5004427;28;20049;-81
2021/03/17 06:51:32;;;;;;;19.38;11.73;;;;;;;2.73;84.99;101323.97;5049581;28;20050;-82
2021/03/17 06:54:01;;;;;;;26.65;11.88;;;;;;;2.47;85.55;101330.41;5040279;28;20037;-83
2021/03/17 06:56:32;;;;;;;23.35;11.25;;;;;;;2.47;85.93;101333.00;5033407;28;20049;-80
2021/03/17 06:59:00;;;;;;;25.10;11.80;;;;;;;2.66;85.86;101332.78;5013957;28;20053;-81
2021/03/17 07:01:40;;;;;;;23.02;12.77;;;;;;;2.88;84.45;101331.56;5014864;28;20145;-81
2021/03/17 07:04:25;;;;;;;28.10;12.90;;;;;;;2.70;84.64;101330.09;5023521;28;20067;-82
2021/03/17 07:07:02;;;;;;;24.80;12.27;;;;;;;2.26;86.82;101341.13;4990345;28;20031;-82
2021/03/17 07:09:31;;;;;;;22.65;11.40;;;;;;;2.00;87.98;101337.13;5000605;28;20101;-81
2021/03/17 07:12:04;;;;;;;24.63;11.82;;;;;;;2.11;88.22;101341.31;5005155;28;20048;-83
2021/03/17 07:14:41;;;;;;;24.25;12.00;;;;;;;2.40;87.31;101344.41;5006859;28;20037;-84
2021/03/17 07:17:25;;;;;;;25.25;12.65;;;;;;;2.45;86.36;101342.59;5001630;28;20527;-81
2021/03/17 07:19:52;;;;;;;30.48;12.52;;;;;;;2.48;86.51;101339.09;5004575;28;20046;-81
2021/03/17 07:22:20;;;;;;;23.85;12.90;;;;;;;2.70;85.68;101348.31;5000800;28;20098;-82
2021/03/17 07:24:52;;;;;;;29.27;12.02;;;;;;;3.00;85.10;101343.50;5011601;28;20026;-80
2021/03/17 07:27:21;;;;;;;31.40;13.10;;;;;;;3.02;84.58;101346.94;5024418;28;20061;-82
2021/03/17 07:29:57;;;;;;;26.73;12.32;;;;;;;3.05;84.35;101345.13;5038220;28;20038;-82
2021/03/17 07:32:56;;;;;;;23.42;11.43;;;;;;;3.32;83.11;101348.16;5037312;28;20054;-81
2021/03/17 07:35:31;;;;;;;36.00;12.50;;;;;;;3.45;82.63;101343.59;5002375;28;20031;-82
2021/03/17 07:38:07;;;;;;;25.08;11.55;;;;;;;3.57;82.16;101347.72;5017086;28;20097;-83
2021/03/17 07:40:36;;;;;;;31.30;12.18;;;;;;;3.59;81.36;101351.16;5019736;28;20052;-83
2021/03/17 07:43:03;;;;;;;22.00;11.52;;;;;;;3.50;82.35;101344.38;5010149;28;20113;-82
2021/03/17 07:45:32;;;;;;;31.00;13.15;;;;;;;3.62;81.31;101351.97;5018056;28;20101;-82
2021/03/17 07:48:04;;;;;;;27.55;12.48;;;;;;;3.37;82.02;101348.06;4996844;28;20050;-82
2021/03/17 07:50:32;;;;;;;22.73;11.98;;;;;;;2.75;83.85;101364.69;5023151;28;20029;-83
2021/03/17 07:53:01;;;;;;;21.48;11.30;;;;;;;3.23;83.04;101361.31;5013144;28;20062;-82
2021/03/17 07:55:29;;;;;;;27.95;11.40;;;;;;;3.05;84.24;101358.13;5031803;28;20058;-82
2021/03/17 07:57:56;;;;;;;33.60;12.48;;;;;;;3.25;83.17;101356.97;5012441;28;20070;-81
2021/03/17 08:00:24;;;;;;;24.35;12.18;;;;;;;3.05;83.55;101358.13;5017372;28;20058;-83
2021/03/17 08:02:53;;;;;;;29.75;12.60;;;;;;;3.01;83.79;101353.84;5002378;28;20050;-82
2021/03/17 08:05:25;;;;;;;25.38;13.15;;;;;;;2.82;84.91;101365.44;5025529;28;20048;-82
2021/03/17 08:07:52;;;;;;;27.23;12.13;;;;;;;2.78;85.87;101372.44;5020345;28;20097;-82
2021/03/17 08:10:20;;;;;;;33.58;12.95;;;;;;;3.02;84.62;101368.63;5016744;28;20030;-81
2021/03/17 08:12:48;;;;;;;27.42;13.15;;;;;;;3.18;84.00;101368.34;5001918;28;20033;-81
2021/03/17 08:15:18;;;;;;;25.67;11.48;;;;;;;3.34;83.60;101371.56;5001193;28;20057;-82
2021/03/17 08:17:45;;;;;;;19.88;12.00;;;;;;;3.53;83.42;101368.59;5009960;28;20058;-83
2021/03/17 08:20:23;;;;;;;27.70;12.68;;;;;;;3.29;83.73;101385.50;5034080;28;20069;-81
2021/03/17 08:22:51;;;;;;;26.75;12.57;;;;;;;2.53;86.79;101387.53;5014455;28;20495;-82
2021/03/17 08:25:38;;;;;;;25.25;12.23;;;;;;;3.32;84.64;101383.72;5015948;28;20049;-85
2021/03/17 08:28:24;;;;;;;25.08;12.23;;;;;;;3.26;84.37;101384.69;5020861;28;20053;-83
2021/03/17 08:30:52;;;;;;;;;;;;;;;3.26;83.72;101382.09;4998323;28;20136;-83
2021/03/17 08:33:34;;;;;;;25.02;11.55;;;;;;;3.52;83.53;101385.13;5007754;28;19921;-82
2021/03/17 08:36:10;;;;;;;20.77;11.50;;;;;;;3.52;83.09;101381.66;4986441;28;20046;-83
2021/03/17 08:38:43;;;;;;;23.52;11.23;;;;;;;3.60;82.87;101384.09;5008458;28;20064;-83
2021/03/17 08:41:10;;;;;;;26.25;12.75;;;;;;;3.46;83.62;101382.59;5026170;28;20045;-83
2021/03/17 08:43:37;;;;;;;30.50;12.07;;;;;;;3.59;83.31;101391.06;5015994;28;20057;-83
2021/03/17 08:46:15;;;;;;;26.23;11.75;;;;;;;3.66;83.51;101389.22;5026492;28;20040;-80
2021/03/17 08:49:04;;;;;;;24.02;11.68;;;;;;;3.68;86.10;101387.44;5009840;28;20076;-81
2021/03/17 08:51:47;;;;;;;23.00;12.20;;;;;;;3.20;84.61;101396.06;4995713;28;20077;-83
2021/03/17 08:54:29;;;;;;;24.90;12.35;;;;;;;3.50;84.17;101399.03;5029873;28;20046;-81
2021/03/17 08:57:04;;;;;;;22.77;11.35;;;;;;;3.85;82.55;101401.00;5022553;28;20037;-83
2021/03/17 08:59:55;;;;;;;31.23;12.70;;;;;;;3.91;81.61;101406.09;5008612;28;20053;-81
2021/03/17 09:02:42;;;;;;;19.27;10.98;;;;;;;4.16;81.45;101396.06;5000938;28;20048;-81
2021/03/17 09:05:18;;;;;;;25.77;11.73;;;;;;;4.12;81.01;101411.78;5018514;28;20065;-82
2021/03/17 09:08:08;;;;;;;27.85;12.63;;;;;;;4.02;80.61;101404.16;5025530;28;20065;-81
2021/03/17 09:10:46;;;;;;;16.45;10.68;;;;;;;4.06;81.35;101404.97;5010046;28;20045;-81
2021/03/17 09:13:15;;;;;;;24.10;11.90;;;;;;;3.68;81.99;101411.72;5022301;28;20045;-81
2021/03/17 09:15:51;;;;;;;28.13;12.55;;;;;;;4.05;81.58;101411.03;5002834;28;20075;-83
2021/03/17 09:18:24;;;;;;;27.90;11.70;;;;;;;4.23;81.24;101413.31;5017771;28;20054;-85
2021/03/17 09:20:58;;;;;;;25.77;12.57;;;;;;;4.61;79.19;101409.03;4989546;28;20046;-81
2021/03/17 09:23:38;;;;;;;28.15;13.90;;;;;;;4.99;78.00;101415.97;5014368;28;20049;-83
2021/03/17 09:26:06;;;;;;;18.33;12.05;;;;;;;5.04;77.59;101403.72;5031113;28;20049;-82
2021/03/17 09:28:35;;;;;;;33.38;12.23;;;;;;;5.40;75.90;101408.91;5013243;28;20541;-80
2021/03/17 09:31:09;;;;;;;23.60;11.25;;;;;;;5.20;75.88;101406.78;5025878;28;20054;-82
2021/03/17 09:33:39;;;;;;;21.55;11.48;;;;;;;5.15;76.63;101413.03;5003985;28;20061;-84
2021/03/17 09:36:22;;;;;;;21.05;11.27;;;;;;;5.37;75.35;101413.38;5019277;28;20090;-82
2021/03/17 09:38:52;;;;;;;18.35;10.40;;;;;;;5.66;74.94;101415.22;5005413;28;20591;-83
2021/03/17 09:41:27;;;;;;;17.35;11.15;;;;;;;5.31;75.38;101414.34;5031068;28;20068;-81
2021/03/17 09:44:00;;;;;;;21.17;11.60;;;;;;;5.26;76.72;101421.44;5027441;28;20073;-81
2021/03/17 09:46:43;;;;;;;19.85;11.35;;;;;;;5.04;75.56;101416.75;4997476;28;20046;-83
2021/03/17 09:49:31;;;;;;;24.02;11.73;;;;;;;5.49;75.28;101418.25;5012199;28;20057;-83
2021/03/17 09:52:01;;;;;;;20.75;10.60;;;;;;;5.32;75.68;101419.56;5006465;28;20049;-83
2021/03/17 09:54:33;;;;;;;27.25;11.50;;;;;;;5.03;77.01;101422.00;5023614;28;20061;-84
2021/03/17 09:57:04;;;;;;;19.30;10.30;;;;;;;5.01;76.99;101427.25;5039989;28;20082;-82
2021/03/17 09:59:39;;;;;;;24.48;11.82;;;;;;;5.11;76.45;101425.28;5002285;28;20053;-85
2021/03/17 10:02:19;;;;;;;18.23;11.32;;;;;;;5.29;75.94;101424.00;5030638;28;20068;-81
2021/03/17 10:04:56;;;;;;;26.40;11.65;;;;;;;5.80;74.53;101423.56;4997261;28;20125;-84
2021/03/17 10:07:25;;;;;;;18.55;10.50;;;;;;;5.36;75.38;101428.19;5016612;28;20049;-82
2021/03/17 10:09:54;;;;;;;19.67;10.18;;;;;;;5.27;75.67;101431.00;5020971;28;20057;-82
2021/03/17 10:12:23;;;;;;;22.70;10.93;;;;;;;4.72;78.50;101430.50;4990087;28;20136;-84
2021/03/17 10:14:56;;;;;;;23.00;11.98;;;;;;;4.96;77.93;101425.66;5026369;28;20080;-84
2021/03/17 10:17:27;;;;;;;18.73;9.95;;;;;;;4.98;78.09;101432.53;5007997;28;20061;-83
2021/03/17 10:20:05;;;;;;;23.80;10.85;;;;;;;5.09;77.90;101429.69;5015582;28;20097;-82
2021/03/17 10:22:34;;;;;;;19.27;9.90;;;;;;;4.81;77.70;101437.28;5015122;28;20085;-82
2021/03/17 10:25:15;;;;;;;17.08;9.80;;;;;;;5.01;78.15;101437.69;5034465;28;20061;-83
2021/03/17 10:28:05;;;;;;;18.05;9.00;;;;;;;5.63;75.51;101439.69;4996929;28;20094;-82
2021/03/17 10:30:43;;;;;;;18.42;8.05;;;;;;;6.02;74.37;101429.09;5025834;28;20093;-80
2021/03/17 10:33:15;;;;;;;12.35;8.20;;;;;;;5.56;75.01;101432.91;5002642;28;20199;-82
2021/03/17 10:35:42;;;;;;;15.05;8.10;;;;;;;5.25;75.77;101433.63;5004502;28;20089;-82
2021/03/17 10:38:10;;;;;;;13.55;8.05;;;;;;;5.23;76.07;101430.22;4979353;28;20078;-83
2021/03/17 10:40:38;;;;;;;15.40;8.57;;;;;;;4.96;77.54;101436.94;5034407;28;20066;-82
2021/03/17 10:43:11;;;;;;;12.95;8.45;;;;;;;5.33;76.22;101436.06;5018964;28;20049;-84
2021/03/17 10:45:51;;;;;;;12.23;8.40;;;;;;;5.22;76.51;101436.34;5026823;28;20049;-81
2021/03/17 10:48:25;;;;;;;12.40;7.80;;;;;;;4.57;79.95;101434.31;5023050;28;20063;-85
2021/03/17 10:50:53;;;;;;;19.10;9.15;;;;;;;4.55;80.77;101438.72;4984256;28;20072;-82
2021/03/17 10:53:25;;;;;;;12.68;7.70;;;;;;;4.29;82.39;101448.81;5010348;28;20046;-83
2021/03/17 10:55:53;;;;;;;10.38;7.25;;;;;;;4.16;82.99;101442.97;5011710;28;20054;-84
2021/03/17 10:58:31;;;;;;;14.90;8.52;;;;;;;3.91;85.88;101434.75;4982452;28;20084;-83
2021/03/17 11:01:02;;;;;;;16.92;8.82;;;;;;;3.94;88.40;101445.13;5014229;28;20041;-84
2021/03/17 11:03:40;;;;;;;12.63;8.55;;;;;;;3.62;88.97;101439.63;5000626;28;20054;-82
2021/03/17 11:06:17;;;;;;;12.85;9.07;;;;;;;3.53;89.40;101436.28;5031791;28;20061;-82
2021/03/17 11:08:46;;;;;;;14.68;9.60;;;;;;;3.62;90.49;101442.22;4991453;28;20038;-85
2021/03/17 11:11:13;;;;;;;17.08;9.68;;;;;;;3.77;89.75;101445.41;5011693;28;20054;-83
2021/03/17 11:13:45;;;;;;;22.15;9.40;;;;;;;3.77;88.48;101447.16;5010463;28;20088;-83
2021/03/17 11:16:29;;;;;;;17.55;10.35;;;;;;;3.80;88.77;101440.16;5034849;28;20073;-81
2021/03/17 11:18:58;;;;;;;13.77;8.98;;;;;;;3.82;87.99;101442.72;5024723;28;20049;-80
2021/03/17 11:21:27;;;;;;;15.73;8.98;;;;;;;3.56;90.49;101443.19;5015697;28;20077;-80
2021/03/17 11:23:59;;;;;;;14.55;8.40;;;;;;;3.90;87.29;101440.00;5025592;28;20097;-81
2021/03/17 11:26:29;;;;;;;14.50;9.02;;;;;;;3.66;87.90;101439.53;5022190;28;20057;-81
2021/03/17 11:28:58;;;;;;;13.90;8.93;;;;;;;3.69;88.47;101449.03;5036627;28;20058;-82
2021/03/17 11:31:32;;;;;;;14.85;8.90;;;;;;;3.65;87.92;101448.25;5016967;28;20069;-82
2021/03/17 11:34:00;;;;;;;20.85;10.00;;;;;;;4.01;88.96;101449.34;5003827;28;20065;-83
2021/03/17 11:36:30;;;;;;;18.10;9.82;;;;;;;4.17;89.21;101443.81;5012253;28;20041;-80
2021/03/17 11:38:58;;;;;;;18.95;8.20;;;;;;;3.95;87.69;101444.22;5016520;28;20065;-81